createdAt,value
2019-04-14T00:02:44.729Z,80.49
2019-04-14T00:05:16.926Z,79.67
2019-04-14T00:07:45.697Z,79.78
2019-04-14T00:10:16.080Z,79.69
2019-04-14T00:12:47.052Z,79.82
2019-04-14T00:15:41.955Z,79.86
2019-04-14T00:18:09.681Z,79.36
2019-04-14T00:20:40.488Z,79.96
2019-04-14T00:23:09.049Z,79.66
2019-04-14T00:25:41.159Z,80.00
2019-04-14T00:28:11.730Z,79.32
2019-04-14T00:30:40.550Z,79.42
2019-04-14T00:33:10.695Z,79.59
2019-04-14T00:35:53.973Z,79.87
2019-04-14T00:38:37.040Z,79.52
2019-04-14T00:41:44.953Z,79.53
2019-04-14T00:44:17.466Z,79.40
2019-04-14T00:46:51.674Z,79.82
2019-04-14T00:49:22.155Z,80.36
2019-04-14T00:51:52.838Z,79.83
2019-04-14T00:54:23.966Z,79.74
2019-04-14T00:56:54.078Z,80.21
2019-04-14T00:59:23.141Z,80.71
2019-04-14T01:01:52.707Z,81.21
2019-04-14T01:04:23.009Z,81.13
2019-04-14T01:06:56.207Z,80.52
2019-04-14T01:09:26.102Z,80.35
2019-04-14T01:11:57.343Z,80.39
2019-04-14T01:14:27.732Z,80.07
2019-04-14T01:16:56.400Z,80.30
2019-04-14T01:19:27.165Z,79.75
2019-04-14T01:22:01.057Z,79.43
2019-04-14T01:24:34.641Z,79.39
2019-04-14T01:27:06.642Z,79.51
2019-04-14T01:29:36.819Z,79.32
2019-04-14T01:32:08.782Z,79.44
2019-04-14T01:34:39.190Z,79.83
2019-04-14T01:37:09.448Z,79.92
2019-04-14T01:39:41.357Z,79.89
2019-04-14T01:42:11.701Z,79.93
2019-04-14T01:44:40.288Z,80.06
2019-04-14T01:47:11.576Z,80.04
2019-04-14T01:49:41.823Z,80.33
2019-04-14T01:52:28.253Z,80.58
2019-04-14T01:55:18.411Z,81.52
2019-04-14T01:58:05.365Z,81.00
2019-04-14T02:00:55.385Z,81.24
2019-04-14T02:03:28.118Z,81.14
2019-04-14T02:05:58.379Z,82.05
2019-04-14T02:08:28.305Z,81.55
2019-04-14T02:10:58.777Z,81.26
2019-04-14T02:13:29.384Z,81.23
2019-04-14T02:16:11.089Z,81.22
2019-04-14T02:18:32.003Z,80.51
2019-04-14T02:21:02.260Z,80.41
2019-04-14T02:23:32.195Z,80.54
2019-04-14T02:26:04.676Z,80.98
2019-04-14T02:28:33.739Z,81.09
2019-04-14T02:31:17.770Z,81.61
2019-04-14T02:34:17.106Z,81.63
2019-04-14T02:36:32.677Z,81.37
2019-04-14T02:39:08.690Z,81.48
2019-04-14T02:41:35.918Z,81.16
2019-04-14T02:44:04.705Z,82.27
2019-04-14T02:46:38.331Z,81.71
2019-04-14T02:51:33.475Z,82.59
2019-04-14T02:54:20.104Z,82.98
2019-04-14T02:56:35.795Z,83.73
2019-04-14T02:59:30.413Z,83.70
2019-04-14T03:04:11.261Z,84.94
2019-04-14T03:06:52.161Z,83.91
2019-04-14T03:11:45.902Z,83.17
2019-04-14T03:14:25.540Z,82.93
2019-04-14T03:17:13.877Z,82.81
2019-04-14T03:20:14.039Z,82.38
2019-04-14T03:25:53.089Z,82.54
2019-04-14T03:28:31.874Z,82.27
2019-04-14T03:36:44.885Z,83.76
2019-04-14T03:38:54.963Z,83.33
2019-04-14T03:41:31.569Z,84.24
2019-04-14T03:43:43.984Z,84.83
2019-04-14T03:46:39.303Z,85.55
2019-04-14T03:53:58.685Z,86.04
2019-04-14T03:56:33.896Z,86.27
2019-04-14T03:59:02.461Z,86.17
2019-04-14T04:01:32.595Z,86.23
2019-04-14T04:04:01.532Z,86.42
2019-04-14T04:06:31.340Z,86.48
2019-04-14T04:09:00.202Z,86.44
2019-04-14T04:11:34.458Z,86.23
2019-04-14T04:14:03.434Z,86.20
2019-04-14T04:16:52.967Z,86.32
2019-04-14T04:19:27.292Z,86.57
2019-04-14T04:22:15.280Z,86.66
2019-04-14T04:24:58.586Z,86.67
2019-04-14T04:27:41.707Z,86.76
2019-04-14T04:30:23.093Z,86.62
2019-04-14T04:33:00.082Z,86.57
2019-04-14T04:35:39.366Z,86.96
2019-04-14T04:38:18.131Z,86.83
2019-04-14T04:40:46.725Z,87.17
2019-04-14T04:43:16.849Z,87.39
2019-04-14T04:45:47.283Z,87.11
2019-04-14T04:48:17.723Z,86.96
2019-04-14T04:50:49.923Z,86.83
2019-04-14T04:53:20.283Z,86.83
2019-04-14T04:55:50.386Z,86.95
2019-04-14T04:58:19.514Z,86.64
2019-04-14T05:00:51.017Z,86.19
2019-04-14T05:03:21.133Z,85.40
2019-04-14T05:06:30.849Z,85.09
2019-04-14T05:09:07.795Z,84.77
2019-04-14T05:11:44.804Z,84.67
2019-04-14T05:14:19.472Z,84.65
2019-04-14T05:17:10.148Z,84.80
2019-04-14T05:19:41.970Z,84.74
2019-04-14T05:22:11.309Z,84.47
2019-04-14T05:24:44.050Z,84.02
2019-04-14T05:27:14.570Z,83.00
2019-04-14T05:29:44.989Z,82.08
2019-04-14T05:32:17.397Z,81.72
2019-04-14T05:34:46.382Z,80.76
2019-04-14T05:37:18.255Z,80.06
2019-04-14T05:40:10.232Z,79.68
2019-04-14T05:42:40.738Z,79.31
2019-04-14T05:45:11.569Z,78.77
2019-04-14T05:47:41.829Z,78.15
2019-04-14T05:50:11.651Z,77.99
2019-04-14T05:52:40.529Z,77.11
2019-04-14T05:55:09.696Z,76.90
2019-04-14T05:57:39.819Z,76.96
2019-04-14T06:00:10.372Z,76.73
2019-04-14T06:02:40.134Z,75.59
2019-04-14T06:05:11.227Z,75.99
2019-04-14T06:07:39.676Z,74.70
2019-04-14T06:10:08.427Z,73.57
2019-04-14T06:12:37.353Z,74.07
2019-04-14T06:15:06.151Z,73.18
2019-04-14T06:17:36.479Z,73.79
2019-04-14T06:20:06.738Z,72.96
2019-04-14T06:22:37.530Z,72.97
2019-04-14T06:25:07.325Z,73.90
2019-04-14T06:27:39.512Z,73.43
2019-04-14T06:30:28.466Z,73.78
2019-04-14T06:33:01.178Z,74.31
2019-04-14T06:35:33.870Z,74.24
2019-04-14T06:38:07.663Z,72.86
2019-04-14T06:40:42.813Z,73.56
2019-04-14T06:43:13.601Z,73.25
2019-04-14T06:45:44.191Z,74.41
2019-04-14T06:48:13.166Z,74.16
2019-04-14T06:50:43.236Z,74.58
2019-04-14T06:53:13.374Z,74.56
2019-04-14T06:55:42.697Z,73.97
2019-04-14T06:58:13.209Z,73.38
2019-04-14T07:00:41.779Z,72.89
2019-04-14T07:03:10.357Z,74.65
2019-04-14T07:05:38.951Z,73.48
2019-04-14T07:08:07.549Z,73.80
2019-04-14T07:10:38.348Z,73.29
2019-04-14T07:13:07.303Z,73.90
2019-04-14T07:15:35.862Z,72.49
2019-04-14T07:18:04.493Z,74.39
2019-04-14T07:20:34.625Z,74.26
2019-04-14T07:23:03.853Z,74.57
2019-04-14T07:25:34.101Z,74.35
2019-04-14T07:28:03.070Z,74.51
2019-04-14T07:30:53.837Z,73.74
2019-04-14T07:33:38.748Z,73.24
2019-04-14T07:36:29.974Z,72.17
2019-04-14T07:39:18.294Z,72.96
2019-04-14T07:42:09.544Z,72.71
2019-04-14T07:44:48.306Z,72.47
2019-04-14T07:47:37.540Z,70.69
2019-04-14T07:50:24.106Z,71.27
2019-04-14T07:53:16.217Z,71.90
2019-04-14T07:56:06.900Z,71.27
2019-04-14T07:59:01.068Z,70.99
2019-04-14T08:01:34.373Z,71.42
2019-04-14T08:04:29.298Z,71.05
2019-04-14T08:06:59.292Z,70.75
2019-04-14T08:09:29.982Z,71.65
2019-04-14T08:11:58.982Z,72.02
2019-04-14T08:14:29.749Z,70.88
2019-04-14T08:16:58.820Z,71.40
2019-04-14T08:19:28.102Z,71.37
2019-04-14T08:21:58.066Z,71.75
2019-04-14T08:24:29.606Z,71.85
2019-04-14T08:26:58.182Z,71.78
2019-04-14T08:29:28.510Z,71.17
2019-04-14T08:31:57.094Z,69.48
2019-04-14T08:34:26.316Z,69.78
2019-04-14T08:36:55.074Z,69.16
2019-04-14T08:39:23.954Z,68.81
2019-04-14T08:42:03.803Z,68.97
2019-04-14T08:44:58.931Z,68.33
2019-04-14T08:47:56.613Z,68.12
2019-04-14T08:50:39.897Z,68.29
2019-04-14T08:53:42.889Z,66.98
2019-04-14T08:56:18.504Z,67.89
2019-04-14T08:59:09.647Z,66.11
2019-04-14T09:01:57.252Z,65.12
2019-04-14T09:04:34.705Z,64.79
2019-04-14T09:07:22.933Z,66.87
2019-04-14T09:09:58.711Z,66.37
2019-04-14T09:12:30.699Z,64.42
2019-04-14T09:14:59.450Z,63.97
2019-04-14T09:17:32.656Z,65.39
2019-04-14T09:20:01.629Z,66.23
2019-04-14T09:22:33.457Z,69.21
2019-04-14T09:25:02.050Z,69.52
2019-04-14T09:27:32.205Z,68.99
2019-04-14T09:30:04.016Z,69.21
2019-04-14T09:32:34.788Z,69.19
2019-04-14T09:35:05.329Z,68.99
2019-04-14T09:37:38.628Z,70.87
2019-04-14T09:40:07.378Z,69.82
2019-04-14T09:42:39.697Z,69.92
2019-04-14T09:45:11.445Z,70.35
2019-04-14T09:47:40.394Z,70.24
2019-04-14T09:50:11.008Z,69.82
2019-04-14T09:52:41.636Z,69.85
2019-04-14T09:55:10.587Z,68.78
2019-04-14T09:57:40.706Z,68.81
2019-04-14T10:00:11.747Z,69.29
2019-04-14T10:02:40.507Z,69.42
2019-04-14T10:05:11.213Z,69.00
2019-04-14T10:07:39.804Z,68.88
2019-04-14T10:10:10.638Z,66.71
2019-04-14T10:12:40.585Z,67.13
2019-04-14T10:15:09.178Z,67.62
2019-04-14T10:17:39.868Z,67.42
2019-04-14T10:20:10.282Z,68.25
2019-04-14T10:22:38.874Z,66.95
2019-04-14T10:25:07.451Z,67.64
2019-04-14T10:27:37.932Z,66.90
2019-04-14T10:30:06.942Z,67.93
2019-04-14T10:32:37.113Z,67.55
2019-04-14T10:35:06.194Z,67.08
2019-04-14T10:37:34.955Z,66.93
2019-04-14T10:40:06.055Z,66.84
2019-04-14T10:42:34.189Z,66.30
2019-04-14T10:45:02.757Z,66.34
2019-04-14T10:47:31.650Z,67.41
2019-04-14T10:50:04.138Z,67.32
2019-04-14T10:52:33.938Z,67.42
2019-04-14T10:55:02.513Z,67.58
2019-04-14T10:57:31.284Z,66.75
2019-04-14T11:00:01.846Z,68.22
2019-04-14T11:02:34.003Z,69.37
2019-04-14T11:05:04.232Z,67.06
2019-04-14T11:07:33.554Z,67.16
2019-04-14T11:10:04.439Z,68.76
2019-04-14T11:12:33.027Z,68.35
2019-04-14T11:15:01.838Z,67.92
2019-04-14T11:17:30.539Z,68.04
2019-04-14T11:20:01.982Z,67.18
2019-04-14T11:22:35.354Z,66.07
2019-04-14T11:25:03.913Z,66.67
2019-04-14T11:27:32.482Z,65.81
2019-04-14T11:30:05.588Z,67.01
2019-04-14T11:32:45.593Z,67.30
2019-04-14T11:35:35.319Z,66.02
2019-04-14T11:38:26.614Z,67.90
2019-04-14T11:40:59.490Z,66.75
2019-04-14T11:43:29.448Z,66.74
2019-04-14T11:46:03.413Z,67.94
2019-04-14T11:48:31.246Z,68.32
2019-04-14T11:51:03.192Z,68.56
2019-04-14T11:53:32.321Z,68.41
2019-04-14T11:56:03.175Z,67.09
2019-04-14T11:58:31.763Z,67.13
2019-04-14T12:01:29.598Z,68.11
2019-04-14T12:04:05.337Z,67.49
2019-04-14T12:06:55.785Z,67.59
2019-04-14T12:09:36.166Z,68.17
2019-04-14T12:14:55.600Z,69.00
2019-04-14T12:17:24.852Z,68.72
2019-04-14T12:19:55.058Z,68.44
2019-04-14T12:22:25.780Z,68.68
2019-04-14T12:24:55.088Z,69.28
2019-04-14T12:27:24.362Z,69.70
2019-04-14T12:29:54.528Z,69.73
2019-04-14T12:32:25.315Z,69.62
2019-04-14T12:34:53.903Z,68.53
2019-04-14T12:37:23.928Z,69.27
2019-04-14T12:39:53.047Z,68.81
2019-04-14T12:42:45.963Z,68.98
2019-04-14T12:45:30.412Z,69.17
2019-04-14T12:48:17.098Z,69.65
2019-04-14T12:50:53.831Z,69.67
2019-04-14T12:53:24.949Z,70.17
2019-04-14T12:55:53.529Z,69.67
2019-04-14T12:58:28.901Z,70.11
2019-04-14T13:01:04.755Z,71.45
2019-04-14T13:03:35.537Z,71.08
2019-04-14T13:06:04.096Z,71.87
2019-04-14T13:08:32.670Z,73.40
2019-04-14T13:11:01.554Z,75.07
2019-04-14T13:13:30.573Z,73.26
2019-04-14T13:16:01.745Z,75.09
2019-04-14T13:18:30.325Z,75.81
2019-04-14T13:20:59.209Z,74.81
2019-04-14T13:23:30.276Z,75.16
2019-04-14T13:25:59.180Z,75.76
2019-04-14T13:28:28.128Z,76.31
2019-04-14T13:30:57.270Z,75.66
2019-04-14T13:33:26.344Z,76.26
2019-04-14T13:35:55.264Z,77.59
2019-04-14T13:38:25.508Z,77.31
2019-04-14T13:40:56.407Z,76.83
2019-04-14T13:43:25.356Z,76.25
2019-04-14T13:45:56.440Z,75.96
2019-04-14T13:48:25.918Z,75.85
2019-04-14T13:50:55.294Z,77.26
2019-04-14T13:53:27.233Z,78.52
2019-04-14T13:55:58.089Z,77.50
2019-04-14T13:58:27.196Z,78.96
2019-04-14T14:00:57.634Z,77.14
2019-04-14T14:03:29.430Z,77.04
2019-04-14T14:05:58.003Z,77.73
2019-04-14T14:08:28.644Z,78.69
2019-04-14T14:11:04.033Z,77.86
2019-04-14T14:13:41.729Z,78.00
2019-04-14T14:16:34.053Z,78.00
2019-04-14T14:19:07.779Z,76.66
2019-04-14T14:21:49.289Z,77.09
2019-04-14T14:24:37.357Z,77.23
2019-04-14T14:27:08.793Z,77.01
2019-04-14T14:29:37.761Z,77.52
2019-04-14T14:32:10.247Z,78.26
2019-04-14T14:34:39.258Z,77.79
2019-04-14T14:37:10.976Z,78.78
2019-04-14T14:39:40.097Z,79.67
2019-04-14T14:42:12.183Z,78.87
2019-04-14T14:44:50.045Z,80.58
2019-04-14T14:47:27.608Z,79.38
2019-04-14T14:50:14.625Z,79.64
2019-04-14T14:52:46.509Z,80.70
2019-04-14T14:55:15.071Z,80.74
2019-04-14T14:57:43.822Z,80.81
2019-04-14T15:00:22.922Z,80.96
2019-04-14T15:02:53.673Z,82.06
2019-04-14T15:05:24.503Z,79.88
2019-04-14T15:07:53.040Z,79.69
2019-04-14T15:10:23.455Z,78.54
2019-04-14T15:12:55.461Z,78.62
2019-04-14T15:15:28.953Z,79.51
2019-04-14T15:17:57.849Z,78.09
2019-04-14T15:20:27.146Z,80.06
2019-04-14T15:22:58.183Z,79.70
2019-04-14T15:25:26.734Z,78.41
2019-04-14T15:27:55.280Z,79.93
2019-04-14T15:30:24.629Z,79.45
2019-04-14T15:32:53.778Z,79.21
2019-04-14T15:35:22.888Z,80.70
2019-04-14T15:37:51.425Z,80.72
2019-04-14T15:40:19.984Z,79.35
2019-04-14T15:42:48.524Z,81.20
2019-04-14T15:45:17.084Z,81.43
2019-04-14T15:47:45.638Z,80.96
2019-04-14T15:50:17.752Z,79.92
2019-04-14T15:52:49.338Z,79.76
2019-04-14T15:55:18.793Z,79.95
2019-04-14T15:57:56.032Z,80.43
2019-04-14T16:00:38.492Z,79.97
2019-04-14T16:03:24.879Z,80.53
2019-04-14T16:06:14.648Z,80.48
2019-04-14T16:08:56.337Z,80.32
2019-04-14T16:11:47.116Z,80.70
2019-04-14T16:14:53.313Z,80.07
2019-04-14T16:17:31.630Z,80.25
2019-04-14T16:20:04.057Z,79.28
2019-04-14T16:22:32.681Z,81.76
2019-04-14T16:25:01.310Z,81.13
2019-04-14T16:27:57.779Z,79.97
2019-04-14T16:30:34.966Z,79.46
2019-04-14T16:33:22.942Z,79.12
2019-04-14T16:35:51.704Z,80.54
2019-04-14T16:38:20.446Z,79.98
2019-04-14T16:40:51.680Z,80.17
2019-04-14T16:43:26.120Z,79.54
2019-04-14T16:45:54.898Z,79.23
2019-04-14T16:48:23.796Z,79.92
2019-04-14T16:50:52.400Z,79.73
2019-04-14T16:53:27.463Z,79.25
2019-04-14T16:56:17.797Z,79.62
2019-04-14T16:58:57.982Z,80.79
2019-04-14T17:01:33.177Z,80.20
2019-04-14T17:04:02.128Z,80.96
2019-04-14T17:06:32.224Z,80.55
2019-04-14T17:09:00.777Z,80.56
2019-04-14T17:11:29.356Z,80.20
2019-04-14T17:14:21.499Z,80.18
2019-04-14T17:17:09.467Z,80.38
2019-04-14T17:20:05.205Z,81.12
2019-04-14T17:22:44.397Z,81.16
2019-04-14T17:25:20.390Z,81.19
2019-04-14T17:28:10.542Z,81.47
2019-04-14T17:30:45.211Z,81.02
2019-04-14T17:33:38.910Z,81.81
2019-04-14T17:36:23.449Z,82.16
2019-04-14T17:39:05.630Z,82.68
2019-04-14T17:41:53.647Z,82.39
2019-04-14T17:44:26.478Z,82.32
2019-04-14T17:47:21.028Z,82.71
2019-04-14T17:50:06.309Z,83.38
2019-04-14T17:52:43.143Z,83.49
2019-04-14T17:55:25.679Z,83.35
2019-04-14T17:58:25.368Z,82.95
2019-04-14T18:01:14.935Z,83.30
2019-04-14T18:04:06.644Z,83.14
2019-04-14T18:06:49.983Z,83.34
2019-04-14T18:09:28.625Z,82.85
2019-04-14T18:12:14.958Z,82.73
2019-04-14T18:15:01.402Z,82.83
2019-04-14T18:17:39.710Z,83.82
2019-04-14T18:20:13.498Z,83.85
2019-04-14T18:22:43.538Z,83.42
2019-04-14T18:25:14.141Z,83.43
2019-04-14T18:28:02.590Z,83.08
2019-04-14T18:30:36.143Z,83.34
2019-04-14T18:33:18.540Z,83.22
2019-04-14T18:36:08.821Z,82.96
2019-04-14T18:38:59.377Z,83.75
2019-04-14T18:41:37.934Z,82.94
2019-04-14T18:44:17.291Z,81.77
2019-04-14T18:46:53.763Z,82.06
2019-04-14T18:49:33.586Z,83.18
2019-04-14T18:52:20.632Z,83.85
2019-04-14T18:54:59.749Z,84.00
2019-04-14T18:57:56.516Z,83.71
2019-04-14T19:00:34.542Z,83.41
2019-04-14T19:03:05.447Z,83.32
2019-04-14T19:05:37.094Z,83.46
2019-04-14T19:08:10.403Z,83.89
2019-04-14T19:10:39.177Z,83.85
2019-04-14T19:13:26.629Z,83.22
2019-04-14T19:16:17.322Z,84.60
2019-04-14T19:18:49.147Z,84.13
2019-04-14T19:21:22.584Z,83.42
2019-04-14T19:23:54.870Z,83.56
2019-04-14T19:26:23.803Z,83.60
2019-04-14T19:28:54.651Z,84.40
2019-04-14T19:31:24.966Z,84.50
2019-04-14T19:33:55.973Z,84.58
2019-04-14T19:36:26.208Z,84.68
2019-04-14T19:38:55.029Z,84.96
2019-04-14T19:41:23.916Z,85.08
2019-04-14T19:43:57.773Z,85.62
2019-04-14T19:46:27.819Z,85.68
2019-04-14T19:49:00.596Z,85.64
2019-04-14T19:51:34.018Z,85.27
2019-04-14T19:54:04.569Z,85.48
2019-04-14T19:56:35.562Z,85.54
2019-04-14T19:59:08.261Z,85.58
2019-04-14T20:01:37.029Z,85.52
2019-04-14T20:04:09.337Z,85.49
2019-04-14T20:06:42.205Z,85.79
2019-04-14T20:09:12.882Z,86.16
2019-04-14T20:11:43.642Z,86.61
2019-04-14T20:14:13.911Z,86.76
2019-04-14T20:17:06.700Z,86.85
2019-04-14T20:19:49.461Z,86.83
2019-04-14T20:22:29.023Z,87.09
2019-04-14T20:25:19.070Z,87.05
2019-04-14T20:27:55.101Z,86.89
2019-04-14T20:30:31.119Z,86.77
2019-04-14T20:33:00.235Z,86.30
2019-04-14T20:35:30.684Z,85.76
2019-04-14T20:38:00.025Z,85.58
2019-04-14T20:40:28.944Z,85.24
2019-04-14T20:42:59.577Z,85.72
2019-04-14T20:45:28.474Z,86.75
2019-04-14T20:48:01.420Z,86.64
2019-04-14T20:50:31.674Z,86.43
2019-04-14T20:53:00.237Z,87.10
2019-04-14T20:55:45.934Z,86.99
2019-04-14T20:58:05.962Z,87.04
2019-04-14T21:00:39.527Z,86.80
2019-04-14T21:03:23.432Z,87.20
2019-04-14T21:06:09.821Z,87.33
2019-04-14T21:09:02.056Z,87.86
2019-04-14T21:11:50.019Z,87.43
2019-04-14T21:14:29.907Z,87.20
2019-04-14T21:20:11.251Z,87.61
2019-04-14T21:22:53.209Z,86.26
2019-04-14T21:25:39.852Z,86.44
2019-04-14T21:28:29.978Z,86.44
2019-04-14T21:31:16.142Z,86.81
2019-04-14T21:34:03.939Z,85.07
2019-04-14T21:36:53.530Z,84.77
2019-04-14T21:39:32.684Z,85.31
2019-04-14T21:42:04.836Z,86.27
2019-04-14T21:44:39.436Z,86.47
2019-04-14T21:47:11.255Z,85.96
2019-04-14T21:49:41.500Z,86.41
2019-04-14T21:52:31.497Z,86.59
2019-04-14T21:55:01.853Z,86.37
2019-04-14T21:57:46.273Z,86.26
2019-04-14T22:00:35.398Z,86.24
2019-04-14T22:03:23.415Z,85.87
2019-04-14T22:06:17.692Z,86.11
2019-04-14T22:08:51.372Z,86.40
2019-04-14T22:11:21.787Z,86.35
2019-04-14T22:13:51.864Z,86.63
2019-04-14T22:16:22.107Z,86.68
2019-04-14T22:18:51.419Z,86.72
2019-04-14T22:21:42.740Z,86.68
2019-04-14T22:24:13.898Z,86.91
2019-04-14T22:26:42.894Z,86.62
2019-04-14T22:29:12.523Z,86.76
2019-04-14T22:31:41.102Z,86.80
2019-04-14T22:34:10.244Z,86.97
2019-04-14T22:36:43.756Z,87.45
2019-04-14T22:39:16.234Z,87.34
2019-04-14T22:41:47.112Z,87.26
2019-04-14T22:44:18.110Z,87.57
2019-04-14T22:46:51.505Z,87.59
2019-04-14T22:49:20.661Z,87.60
2019-04-14T22:51:50.609Z,87.66
2019-04-14T22:54:20.777Z,87.89
2019-04-14T22:56:53.089Z,87.76
2019-04-14T22:59:23.527Z,87.97
2019-04-14T23:02:01.434Z,88.07
2019-04-14T23:04:49.821Z,88.06
2019-04-14T23:07:55.908Z,87.92
2019-04-14T23:11:03.482Z,88.16
2019-04-14T23:13:39.957Z,88.38
2019-04-14T23:16:26.293Z,88.37
2019-04-14T23:19:18.230Z,88.33
2019-04-14T23:21:56.760Z,88.48
2019-04-14T23:24:30.257Z,88.58
2019-04-14T23:26:59.006Z,88.42
2019-04-14T23:29:27.572Z,88.18
2019-04-14T23:31:58.637Z,87.99
2019-04-14T23:34:33.482Z,88.59
2019-04-14T23:37:02.577Z,88.30
2019-04-14T23:39:36.188Z,88.25
2019-04-14T23:42:07.652Z,88.21
2019-04-14T23:44:37.751Z,88.29
2019-04-14T23:47:08.076Z,88.21
2019-04-14T23:49:37.036Z,88.05
2019-04-14T23:52:07.813Z,88.05
2019-04-14T23:54:36.578Z,87.95
2019-04-14T23:57:07.662Z,87.88
2019-04-14T23:59:36.907Z,87.42
